Time;durP1;ratioP1;P1;durP2;ratioP2;P2;SDS_P1;SDS_P2;PMS_P1;PMS_P2;Temp;Humidity;BMP_temperature;BMP_pressure;BME280_temperature;BME280_humidity;BME280_pressure;Samples;Min_cycle;Max_cycle;Signal;HPM_P1;HPM_P2
2022/06/13 00:00:58;;;;;;;3.45;1.48;;;22.80;60.90;;;;;;5075610;28;20036;-63
2022/06/13 00:03:23;;;;;;;2.05;1.15;;;22.70;60.90;;;;;;5074987;28;20447;-63
2022/06/13 00:05:49;;;;;;;4.18;1.35;;;22.70;60.80;;;;;;5075343;28;20045;-63
2022/06/13 00:08:14;;;;;;;3.72;1.50;;;22.70;60.80;;;;;;5075502;28;20119;-62
2022/06/13 00:10:40;;;;;;;3.50;1.48;;;22.70;60.90;;;;;;5074731;28;20048;-62
2022/06/13 00:13:05;;;;;;;4.45;1.52;;;22.70;60.80;;;;;;5075333;28;20504;-62
2022/06/13 00:15:31;;;;;;;4.38;1.27;;;22.70;60.90;;;;;;5075493;28;20060;-62
2022/06/13 00:17:57;;;;;;;4.60;1.40;;;22.70;60.90;;;;;;5074434;28;20033;-62
2022/06/13 00:20:22;;;;;;;2.30;1.38;;;22.70;60.90;;;;;;5075254;28;20044;-62
2022/06/13 00:22:48;;;;;;;5.65;1.70;;;22.70;60.90;;;;;;5073974;28;20037;-62
2022/06/13 00:25:13;;;;;;;3.28;1.35;;;22.70;60.90;;;;;;5074976;28;20052;-62
2022/06/13 00:27:39;;;;;;;3.70;1.40;;;22.70;60.90;;;;;;5075373;28;20047;-63
2022/06/13 00:30:06;;;;;;;4.15;1.60;;;22.70;60.90;;;;;;5074563;28;20481;-63
2022/06/13 00:32:31;;;;;;;4.45;1.40;;;22.70;60.90;;;;;;5075115;28;20037;-62
2022/06/13 00:34:57;;;;;;;4.30;1.75;;;22.70;60.90;;;;;;5074832;28;20421;-62
2022/06/13 00:37:22;;;;;;;3.40;1.25;;;22.60;60.80;;;;;;5074433;28;20032;-62
2022/06/13 00:39:48;;;;;;;3.55;1.40;;;22.70;60.90;;;;;;5074379;28;20067;-62
2022/06/13 00:42:20;;;;;;;5.75;1.45;;;22.60;60.80;;;;;;5074671;28;20131;-62
2022/06/13 00:45:23;;;;;;;4.65;1.55;;;22.60;60.80;;;;;;5073785;28;20048;-62
2022/06/13 00:47:51;;;;;;;5.22;1.65;;;22.60;60.80;;;;;;5074449;28;20480;-62
2022/06/13 00:50:18;;;;;;;;;;;22.60;60.80;;;;;;5075493;28;20045;-62
2022/06/13 00:52:50;;;;;;;4.57;1.65;;;22.60;60.80;;;;;;5072339;28;20294;-63
2022/06/13 00:55:21;;;;;;;4.05;1.30;;;22.60;60.90;;;;;;5073609;28;20052;-63
2022/06/13 00:57:46;;;;;;;2.75;1.38;;;22.60;60.90;;;;;;5073201;28;20047;-63
2022/06/13 01:00:13;;;;;;;4.00;1.52;;;22.60;60.90;;;;;;5073227;28;20407;-62
2022/06/13 01:02:40;;;;;;;4.30;1.50;;;22.60;60.80;;;;;;5072537;28;20124;-63
2022/06/13 01:05:07;;;;;;;4.05;1.85;;;22.50;60.80;;;;;;5072856;28;20098;-63
2022/06/13 01:07:32;;;;;;;4.05;1.52;;;22.60;60.90;;;;;;5073381;28;20120;-63
2022/06/13 01:12:42;;;;;;;3.13;1.45;;;22.50;60.80;;;;;;5072152;28;20469;-63
2022/06/13 01:15:20;;;;;;;4.65;1.60;;;22.50;60.80;;;;;;5074239;28;20040;-62
2022/06/13 01:18:00;;;;;;;4.00;1.63;;;22.50;60.80;;;;;;5074347;28;20101;-63
2022/06/13 01:20:45;;;;;;;3.65;1.50;;;22.50;60.80;;;;;;5073420;28;20087;-62
2022/06/13 01:23:24;;;;;;;3.08;1.30;;;22.50;60.80;;;;;;5073276;28;20080;-62
2022/06/13 01:26:29;;;;;;;6.20;1.52;;;22.50;61.40;;;;;;5073674;28;20056;-62
2022/06/13 01:29:04;;;;;;;3.30;1.52;;;22.50;60.80;;;;;;5050697;28;20063;-62
2022/06/13 01:31:46;;;;;;;4.00;1.20;;;22.50;60.80;;;;;;5073588;28;20048;-62
2022/06/13 01:34:35;;;;;;;3.17;1.33;;;22.50;60.80;;;;;;5071688;28;20032;-63
2022/06/13 01:37:14;;;;;;;4.32;1.40;;;22.50;60.80;;;;;;5072628;28;20155;-63
2022/06/13 01:40:13;;;;;;;3.15;1.27;;;22.50;60.80;;;;;;5072378;28;20396;-63
2022/06/13 01:43:01;;;;;;;4.18;1.75;;;22.50;60.80;;;;;;5072825;28;20132;-63
2022/06/13 01:45:40;;;;;;;3.92;1.52;;;22.50;60.80;;;;;;5072415;28;20392;-63
2022/06/13 01:48:28;;;;;;;2.72;1.48;;;22.50;60.80;;;;;;5072884;28;20040;-63
2022/06/13 01:51:16;;;;;;;2.95;1.42;;;22.40;60.70;;;;;;5072133;28;20124;-63
2022/06/13 01:54:03;;;;;;;3.03;1.52;;;22.50;60.80;;;;;;5072215;28;20044;-63
2022/06/13 01:57:29;;;;;;;4.35;1.70;;;22.40;60.80;;;;;;5073771;28;20041;-63
2022/06/13 02:00:11;;;;;;;3.75;1.30;;;22.40;60.70;;;;;;5011181;28;20052;-63
2022/06/13 02:03:19;;;;;;;4.85;1.70;;;22.40;60.80;;;;;;4994128;28;20046;-63
2022/06/13 02:05:51;;;;;;;3.53;1.55;;;22.40;61.30;;;;;;5057959;28;20056;-63
2022/06/13 02:08:29;;;;;;;3.63;1.38;;;22.40;60.70;;;;;;5071356;28;20598;-63
2022/06/13 02:11:04;;;;;;;3.50;1.25;;;22.40;60.70;;;;;;5071687;28;20043;-63
2022/06/13 02:13:47;;;;;;;5.28;1.70;;;22.40;60.70;;;;;;5072736;28;20166;-63
2022/06/13 02:16:15;;;;;;;3.78;1.40;;;22.40;60.70;;;;;;5073607;28;20119;-63
2022/06/13 02:18:57;;;;;;;3.97;1.60;;;22.40;60.70;;;;;;5070912;28;20079;-63
2022/06/13 02:21:24;;;;;;;4.63;2.15;;;22.40;60.60;;;;;;5071326;28;20396;-63
2022/06/13 02:23:52;;;;;;;2.60;1.20;;;22.40;60.60;;;;;;5070669;28;20048;-63
2022/06/13 02:26:21;;;;;;;3.90;1.70;;;22.40;60.60;;;;;;5071848;28;20115;-63
2022/06/13 02:29:31;;;;;;;5.03;1.60;;;22.40;60.60;;;;;;5071491;28;20047;-64
2022/06/13 02:31:59;;;;;;;5.18;1.40;;;22.40;60.60;;;;;;5072448;28;20070;-63
2022/06/13 02:34:44;;;;;;;2.88;1.30;;;22.40;60.60;;;;;;5071967;28;20036;-63
2022/06/13 02:37:23;;;;;;;3.95;1.63;;;22.40;60.60;;;;;;5070899;28;20507;-63
2022/06/13 02:40:14;;;;;;;2.80;1.38;;;22.30;60.60;;;;;;5072596;28;20041;-63
2022/06/13 02:42:51;;;;;;;3.70;1.40;;;22.30;60.60;;;;;;5071581;28;20130;-63
2022/06/13 02:45:23;;;;;;;3.15;1.58;;;22.30;60.50;;;;;;5071477;28;20403;-63
2022/06/13 02:48:10;;;;;;;3.75;1.48;;;22.30;60.60;;;;;;5071489;28;20487;-63
2022/06/13 02:50:56;;;;;;;2.33;1.27;;;22.30;60.50;;;;;;5071461;28;20059;-63
2022/06/13 02:53:29;;;;;;;2.63;1.30;;;22.30;60.60;;;;;;5071948;28;20131;-63
2022/06/13 02:56:12;;;;;;;3.95;1.38;;;22.30;60.60;;;;;;5071059;28;20049;-63
2022/06/13 02:59:24;;;;;;;3.67;1.55;;;22.30;60.60;;;;;;5071087;28;20049;-63
2022/06/13 03:01:50;;;;;;;4.40;1.45;;;22.30;60.60;;;;;;5030159;28;20044;-63
2022/06/13 03:04:30;;;;;;;3.58;1.60;;;22.20;60.60;;;;;;5058691;28;20048;-63
2022/06/13 03:07:11;;;;;;;4.38;1.40;;;22.30;60.60;;;;;;5072296;28;20044;-63
2022/06/13 03:09:41;;;;;;;2.45;1.35;;;22.20;60.60;;;;;;5072415;28;20080;-63
2022/06/13 03:12:14;;;;;;;3.25;1.35;;;22.20;60.50;;;;;;5070518;28;20476;-63
2022/06/13 03:14:47;;;;;;;3.72;1.77;;;22.20;60.50;;;;;;5071149;28;20036;-63
2022/06/13 03:17:35;;;;;;;3.75;1.45;;;22.20;60.50;;;;;;5071126;28;20048;-63
2022/06/13 03:20:08;;;;;;;2.58;1.42;;;22.20;60.50;;;;;;5070153;28;20044;-63
2022/06/13 03:23:03;;;;;;;4.25;1.60;;;22.20;60.50;;;;;;5071288;28;20115;-63
2022/06/13 03:25:50;;;;;;;3.67;1.67;;;22.20;60.40;;;;;;5070563;28;20056;-63
2022/06/13 03:28:19;;;;;;;4.13;1.73;;;22.20;60.50;;;;;;5071021;28;20059;-63
2022/06/13 03:30:53;;;;;;;5.63;1.80;;;22.20;60.50;;;;;;5074113;28;20407;-63
2022/06/13 03:33:40;;;;;;;3.17;1.70;;;22.20;60.50;;;;;;5074873;28;20040;-63
2022/06/13 03:36:22;;;;;;;3.90;1.42;;;22.20;60.50;;;;;;5075542;28;20099;-63
2022/06/13 03:39:17;;;;;;;3.13;1.40;;;22.20;60.50;;;;;;5074948;28;20051;-63
2022/06/13 03:41:48;;;;;;;3.70;1.60;;;22.20;60.50;;;;;;5075245;28;20051;-63
2022/06/13 03:44:23;;;;;;;3.67;1.35;;;22.20;60.50;;;;;;5075530;28;20484;-63
2022/06/13 03:46:57;;;;;;;4.38;1.67;;;22.20;60.50;;;;;;5073855;28;20121;-63
2022/06/13 03:49:30;;;;;;;2.58;1.40;;;22.20;60.50;;;;;;5074960;28;20052;-63
2022/06/13 03:51:56;;;;;;;5.25;1.77;;;22.20;60.50;;;;;;5073999;28;20044;-63
2022/06/13 03:54:27;;;;;;;3.10;1.20;;;22.20;60.50;;;;;;5073535;28;20055;-63
2022/06/13 03:57:08;;;;;;;4.45;1.40;;;22.20;60.50;;;;;;5074846;28;20036;-62
2022/06/13 03:59:36;;;;;;;4.43;1.63;;;22.20;60.50;;;;;;5075106;28;20056;-63
2022/06/13 04:02:07;;;;;;;3.90;1.33;;;22.10;60.50;;;;;;5070052;28;20053;-63
2022/06/13 04:04:37;;;;;;;2.88;1.30;;;22.20;60.50;;;;;;5072563;28;20040;-63
2022/06/13 04:07:03;;;;;;;3.97;1.25;;;22.10;60.50;;;;;;5073772;28;20047;-62
2022/06/13 04:09:32;;;;;;;4.55;1.33;;;22.10;60.50;;;;;;5074862;28;20036;-63
2022/06/13 04:12:04;;;;;;;4.60;1.80;;;22.10;60.50;;;;;;5075274;28;20036;-63
2022/06/13 04:14:36;;;;;;;3.47;1.20;;;22.10;60.50;;;;;;5074141;28;20040;-63
2022/06/13 04:17:26;;;;;;;3.53;1.73;;;22.10;60.50;;;;;;5074714;28;20128;-63
2022/06/13 04:20:13;;;;;;;4.30;1.30;;;22.10;60.40;;;;;;5074134;28;20037;-63
2022/06/13 04:22:40;;;;;;;3.65;1.40;;;22.10;60.50;;;;;;5074750;28;20044;-63
2022/06/13 04:25:22;;;;;;;4.47;1.73;;;22.10;60.50;;;;;;5074044;28;20109;-63
2022/06/13 04:27:53;;;;;;;4.40;1.48;;;22.10;60.50;;;;;;5073681;28;20052;-63
2022/06/13 04:30:21;;;;;;;3.95;1.58;;;22.10;60.50;;;;;;5073709;28;20037;-63
2022/06/13 04:32:48;;;;;;;5.07;1.50;;;22.10;60.50;;;;;;5073905;28;20063;-63
2022/06/13 04:35:13;;;;;;;3.50;1.52;;;22.10;60.50;;;;;;5073805;28;20044;-63
2022/06/13 04:37:39;;;;;;;4.28;1.33;;;22.10;60.50;;;;;;5073246;28;20047;-63
2022/06/13 04:40:06;;;;;;;3.40;1.35;;;22.10;60.50;;;;;;5073899;28;20045;-63
2022/06/13 04:42:34;;;;;;;3.15;1.23;;;22.10;60.50;;;;;;5073405;28;20044;-63
2022/06/13 04:45:02;;;;;;;3.28;1.38;;;22.10;60.50;;;;;;5072405;28;20492;-63
2022/06/13 04:47:27;;;;;;;3.38;1.42;;;22.00;60.40;;;;;;5073938;28;20044;-63
2022/06/13 04:49:55;;;;;;;3.30;1.42;;;22.00;60.50;;;;;;5072974;28;20049;-63
2022/06/13 04:52:24;;;;;;;3.92;1.67;;;22.10;60.50;;;;;;5074009;28;20051;-63
2022/06/13 04:54:59;;;;;;;3.80;1.60;;;22.00;60.50;;;;;;5073638;28;20118;-63
2022/06/13 04:57:24;;;;;;;3.22;1.55;;;22.00;60.50;;;;;;5073857;28;20043;-63
2022/06/13 04:59:50;;;;;;;3.40;1.30;;;22.00;60.50;;;;;;5074221;28;20119;-63
2022/06/13 05:02:22;;;;;;;4.85;1.52;;;22.10;60.60;;;;;;5074920;28;20040;-63
2022/06/13 05:04:48;;;;;;;3.63;1.48;;;22.00;60.60;;;;;;5072376;28;20056;-63
2022/06/13 05:07:18;;;;;;;3.65;1.52;;;22.10;60.60;;;;;;5073355;28;20044;-63
2022/06/13 05:09:50;;;;;;;3.13;1.30;;;22.00;60.60;;;;;;5072693;28;20044;-63
2022/06/13 05:12:28;;;;;;;4.03;1.50;;;22.10;60.70;;;;;;5072008;28;20044;-63
2022/06/13 05:15:15;;;;;;;2.92;1.73;;;22.00;60.70;;;;;;5072948;28;20502;-63
2022/06/13 05:17:59;;;;;;;3.97;1.80;;;22.10;60.90;;;;;;5072987;28;20048;-63
2022/06/13 05:20:54;;;;;;;4.20;1.60;;;22.10;60.90;;;;;;5073453;28;20062;-63
2022/06/13 05:23:41;;;;;;;3.10;1.40;;;22.10;61.00;;;;;;5072637;28;20055;-63
2022/06/13 05:26:07;;;;;;;2.83;1.33;;;22.10;61.10;;;;;;5072495;28;20044;-63
2022/06/13 05:28:34;;;;;;;3.25;1.65;;;22.10;61.10;;;;;;5074140;28;20112;-63
2022/06/13 05:31:01;;;;;;;2.92;1.27;;;22.10;61.10;;;;;;5073716;28;20048;-61
2022/06/13 05:33:30;;;;;;;4.65;1.83;;;22.10;61.00;;;;;;5072464;28;20044;-61
2022/06/13 05:35:57;;;;;;;4.50;1.58;;;22.10;61.00;;;;;;5072609;28;20055;-62
2022/06/13 05:38:50;;;;;;;4.68;2.03;;;22.10;61.00;;;;;;5074012;28;20061;-63
2022/06/13 05:41:15;;;;;;;4.90;1.45;;;22.10;61.10;;;;;;5070510;28;20170;-63
2022/06/13 05:43:41;;;;;;;6.00;2.13;;;22.10;61.10;;;;;;5073386;28;20158;-63
2022/06/13 05:46:07;;;;;;;4.45;1.60;;;22.20;61.00;;;;;;5073781;28;20033;-63
2022/06/13 05:48:32;;;;;;;5.57;1.83;;;22.20;61.10;;;;;;5072120;28;20511;-63
2022/06/13 05:50:58;;;;;;;4.57;1.70;;;22.20;61.00;;;;;;5073179;28;20036;-63
2022/06/13 05:53:24;;;;;;;4.50;1.58;;;22.20;61.10;;;;;;5071868;28;20097;-63
2022/06/13 05:55:51;;;;;;;3.90;1.60;;;22.20;61.10;;;;;;5073409;28;20477;-62
2022/06/13 05:58:17;;;;;;;17.60;2.53;;;22.20;61.10;;;;;;5072128;28;20510;-62
2022/06/13 06:00:47;;;;;;;4.00;1.60;;;22.30;61.20;;;;;;5072360;28;20627;-63
2022/06/13 06:03:13;;;;;;;5.53;1.45;;;22.30;61.20;;;;;;5072349;28;20037;-63
2022/06/13 06:05:39;;;;;;;5.00;1.70;;;22.30;61.20;;;;;;5073219;28;20151;-62
2022/06/13 06:08:05;;;;;;;5.65;1.83;;;22.40;61.30;;;;;;5072297;28;20495;-62
2022/06/13 06:10:32;;;;;;;5.82;1.80;;;22.30;61.20;;;;;;5072969;28;20145;-61
2022/06/13 06:12:58;;;;;;;6.18;1.92;;;22.40;61.30;;;;;;5071849;28;20166;-63
2022/06/13 06:15:24;;;;;;;5.75;1.98;;;22.40;61.30;;;;;;5071654;28;20115;-63
2022/06/13 06:17:49;;;;;;;6.20;2.10;;;22.40;61.40;;;;;;5072341;28;20131;-62
2022/06/13 06:20:17;;;;;;;4.40;1.70;;;22.40;61.50;;;;;;5072863;28;20044;-62
2022/06/13 06:22:43;;;;;;;4.78;1.80;;;22.40;61.50;;;;;;5071711;28;20045;-63
2022/06/13 06:25:08;;;;;;;9.20;2.45;;;22.40;61.60;;;;;;5072364;28;20052;-62
2022/06/13 06:27:34;;;;;;;7.07;1.83;;;22.40;61.60;;;;;;5071886;28;20484;-62
2022/06/13 06:30:02;;;;;;;5.50;2.08;;;22.40;61.60;;;;;;5071883;28;20257;-63
2022/06/13 06:32:27;;;;;;;4.75;1.75;;;22.40;61.60;;;;;;5072724;28;20094;-63
2022/06/13 06:34:53;;;;;;;5.28;1.70;;;22.40;61.60;;;;;;5072634;28;20048;-63
2022/06/13 06:37:18;;;;;;;5.43;1.90;;;22.40;61.60;;;;;;5072067;28;20446;-63
2022/06/13 06:39:44;;;;;;;4.20;1.90;;;22.50;61.70;;;;;;5072172;28;20040;-63
2022/06/13 06:42:10;;;;;;;4.32;2.22;;;22.50;61.60;;;;;;5072799;28;20180;-63
2022/06/13 06:44:35;;;;;;;5.20;1.90;;;22.50;61.60;;;;;;5072034;28;20044;-62
2022/06/13 06:47:01;;;;;;;5.30;1.67;;;22.50;61.60;;;;;;5071191;28;20056;-61
2022/06/13 06:49:27;;;;;;;4.55;1.80;;;22.50;61.60;;;;;;5071604;28;20094;-62
2022/06/13 06:51:52;;;;;;;5.07;2.00;;;22.50;61.60;;;;;;5071939;28;20543;-63
2022/06/13 06:59:56;;;;;;;6.53;1.83;;;22.50;61.50;;;;;;5072541;28;20127;-62
2022/06/13 07:02:26;;;;;;;6.05;1.73;;;22.50;61.50;;;;;;5072218;28;20127;-62
2022/06/13 07:04:58;;;;;;;5.13;2.10;;;22.50;61.40;;;;;;5071114;28;20045;-62
2022/06/13 07:07:24;;;;;;;4.57;1.73;;;22.50;61.40;;;;;;5072364;28;20047;-61
2022/06/13 07:09:49;;;;;;;4.88;1.80;;;22.50;61.40;;;;;;5071790;28;20048;-61
2022/06/13 07:12:15;;;;;;;4.70;1.52;;;22.50;61.40;;;;;;5071718;28;20037;-61
2022/06/13 07:14:40;;;;;;;4.35;1.55;;;22.50;61.30;;;;;;5071946;28;20094;-61
2022/06/13 07:17:07;;;;;;;7.63;2.22;;;22.50;61.20;;;;;;5072431;28;20036;-61
2022/06/13 07:19:33;;;;;;;6.15;1.50;;;22.50;61.10;;;;;;5071284;28;20048;-60
2022/06/13 07:21:58;;;;;;;7.38;1.77;;;22.50;60.90;;;;;;5071952;28;20051;-61
2022/06/13 07:24:24;;;;;;;6.50;1.92;;;22.50;61.00;;;;;;5071980;28;20048;-62
2022/06/13 07:26:50;;;;;;;5.53;1.67;;;22.50;61.00;;;;;;5071124;28;20056;-62
2022/06/13 07:29:18;;;;;;;3.78;1.70;;;22.50;60.90;;;;;;5071904;28;20040;-62
2022/06/13 07:31:49;;;;;;;3.70;1.63;;;22.50;60.90;;;;;;5070844;28;20484;-62
2022/06/13 07:34:17;;;;;;;4.28;1.52;;;22.50;60.80;;;;;;5072214;28;20047;-61
2022/06/13 07:36:43;;;;;;;4.07;1.90;;;22.50;60.70;;;;;;5071584;28;20492;-61
2022/06/13 07:39:09;;;;;;;5.50;1.70;;;22.50;60.70;;;;;;5071509;28;20036;-61
2022/06/13 07:41:34;;;;;;;4.82;1.30;;;22.50;60.70;;;;;;5071536;28;20114;-62
2022/06/13 07:44:00;;;;;;;7.45;1.65;;;22.40;60.60;;;;;;5069762;28;20571;-63
2022/06/13 07:46:27;;;;;;;6.68;1.92;;;22.40;60.60;;;;;;5069844;28;20459;-63
2022/06/13 07:48:53;;;;;;;5.25;1.60;;;22.40;60.70;;;;;;5070695;28;20049;-63
2022/06/13 07:51:19;;;;;;;8.98;1.83;;;22.40;60.70;;;;;;5072036;28;20048;-62
2022/06/13 07:53:44;;;;;;;4.35;1.48;;;22.40;60.50;;;;;;5070682;28;20049;-63
2022/06/13 07:56:12;;;;;;;5.82;1.58;;;22.40;60.50;;;;;;5072261;28;20040;-62
2022/06/13 07:58:37;;;;;;;6.57;2.10;;;22.40;60.60;;;;;;5070634;28;20083;-62
2022/06/13 08:01:04;;;;;;;6.18;1.80;;;22.40;60.70;;;;;;5070813;28;20041;-63
2022/06/13 08:03:30;;;;;;;6.05;2.45;;;22.40;60.80;;;;;;5070645;28;20054;-62
2022/06/13 08:05:56;;;;;;;7.40;2.13;;;22.40;60.80;;;;;;5071356;28;20045;-63
2022/06/13 08:08:22;;;;;;;8.27;2.70;;;22.40;60.80;;;;;;5069948;28;20041;-63
2022/06/13 08:10:48;;;;;;;7.13;2.88;;;22.40;60.80;;;;;;5072853;28;20086;-62
2022/06/13 08:13:14;;;;;;;12.32;2.97;;;22.40;60.80;;;;;;5071556;28;20033;-62
2022/06/13 08:15:40;;;;;;;9.23;2.90;;;22.40;60.80;;;;;;5070500;28;20072;-62
2022/06/13 08:18:07;;;;;;;8.98;2.78;;;22.40;60.90;;;;;;5073857;28;20071;-61
2022/06/13 08:20:32;;;;;;;8.65;3.13;;;22.40;61.10;;;;;;5074521;28;20503;-62
2022/06/13 08:23:00;;;;;;;15.55;3.63;;;22.40;61.20;;;;;;5069705;28;20041;-62
2022/06/13 08:25:27;;;;;;;12.15;3.28;;;22.40;61.30;;;;;;5055364;28;20065;-62
2022/06/13 08:27:54;;;;;;;11.52;3.85;;;22.50;61.40;;;;;;5054828;28;20120;-62
2022/06/13 08:30:19;;;;;;;8.85;4.13;;;22.50;61.50;;;;;;5054646;28;20102;-62
2022/06/13 08:32:45;;;;;;;9.02;2.85;;;22.50;61.30;;;;;;5055072;28;20033;-63
2022/06/13 08:35:11;;;;;;;12.05;3.53;;;22.50;61.20;;;;;;5054595;28;20131;-62
2022/06/13 08:37:37;;;;;;;9.65;3.40;;;22.50;61.10;;;;;;5055032;28;20037;-62
2022/06/13 08:40:03;;;;;;;11.18;3.60;;;22.60;61.00;;;;;;5054435;28;20106;-62
2022/06/13 08:42:32;;;;;;;8.60;3.00;;;22.50;60.80;;;;;;5054189;28;20124;-62
2022/06/13 08:45:28;;;;;;;8.43;3.08;;;22.60;60.70;;;;;;5053540;28;20049;-63
2022/06/13 08:47:58;;;;;;;7.88;2.67;;;22.60;60.60;;;;;;5054892;28;20492;-62
2022/06/13 08:50:49;;;;;;;6.97;2.67;;;22.60;60.80;;;;;;5053048;28;20123;-63
2022/06/13 08:53:23;;;;;;;8.23;2.42;;;22.60;60.50;;;;;;5054176;28;20055;-62
2022/06/13 08:56:02;;;;;;;9.40;2.60;;;22.60;60.50;;;;;;5058220;28;20036;-63
2022/06/13 08:58:49;;;;;;;8.27;2.30;;;22.70;60.50;;;;;;5074295;28;20403;-61
2022/06/13 09:01:19;;;;;;;7.87;2.40;;;22.70;60.80;;;;;;5073805;28;20048;-63
2022/06/13 09:03:53;;;;;;;8.15;2.35;;;22.70;60.80;;;;;;5072189;28;20056;-62
2022/06/13 09:06:35;;;;;;;9.60;2.78;;;22.70;61.00;;;;;;5073284;28;20072;-62
2022/06/13 09:09:10;;;;;;;8.23;2.35;;;22.70;61.10;;;;;;5073144;28;20040;-63
2022/06/13 09:11:43;;;;;;;8.57;2.17;;;22.70;61.20;;;;;;5072694;28;20045;-63
2022/06/13 09:14:11;;;;;;;10.73;2.28;;;22.70;61.30;;;;;;5072210;28;20067;-61
2022/06/13 09:16:37;;;;;;;6.50;2.30;;;22.70;61.30;;;;;;5073239;28;20060;-61
2022/06/13 09:19:20;;;;;;;7.45;2.53;;;22.70;61.10;;;;;;5071701;28;20044;-62
2022/06/13 09:22:03;;;;;;;7.28;2.03;;;22.70;60.70;;;;;;5071540;28;20075;-62
2022/06/13 09:24:39;;;;;;;6.85;2.00;;;22.70;61.10;;;;;;5070251;28;20378;-62
2022/06/13 09:27:10;;;;;;;6.55;2.00;;;22.70;60.50;;;;;;5071751;28;20431;-62
2022/06/13 09:29:51;;;;;;;7.13;2.08;;;22.70;60.40;;;;;;5073089;28;20040;-62
2022/06/13 09:32:18;;;;;;;6.93;2.38;;;22.70;60.30;;;;;;5073218;28;20040;-62
2022/06/13 09:34:48;;;;;;;5.65;1.50;;;22.70;60.20;;;;;;5073737;28;20044;-62
2022/06/13 09:37:15;;;;;;;7.40;2.00;;;22.70;60.00;;;;;;5073947;28;20064;-62
2022/06/13 09:39:41;;;;;;;6.55;1.65;;;22.70;60.00;;;;;;5073092;28;20047;-62
2022/06/13 09:42:28;;;;;;;5.60;1.73;;;22.70;60.00;;;;;;5073559;28;20048;-62
2022/06/13 09:45:06;;;;;;;5.68;1.60;;;22.70;59.70;;;;;;5073225;28;20522;-62
2022/06/13 09:47:47;;;;;;;3.47;1.48;;;22.70;59.80;;;;;;5072821;28;20517;-62
2022/06/13 09:50:12;;;;;;;4.93;1.63;;;22.70;59.80;;;;;;5074121;28;20044;-62
2022/06/13 09:52:44;;;;;;;5.80;1.67;;;22.70;59.80;;;;;;5073018;28;20833;-62
2022/06/13 09:55:21;;;;;;;7.13;1.50;;;22.70;59.70;;;;;;5072455;28;20052;-62
2022/06/13 09:58:05;;;;;;;5.30;1.75;;;22.70;59.70;;;;;;5071631;28;20500;-62
2022/06/13 10:00:37;;;;;;;5.90;1.45;;;22.70;59.50;;;;;;5072549;28;20420;-62
2022/06/13 10:03:24;;;;;;;5.85;1.58;;;22.70;59.50;;;;;;5073207;28;20052;-62
2022/06/13 10:05:57;;;;;;;5.97;1.48;;;22.70;59.50;;;;;;5073140;28;20040;-61
2022/06/13 10:08:38;;;;;;;4.72;1.45;;;22.70;59.30;;;;;;5071975;28;20056;-61
2022/06/13 10:11:12;;;;;;;3.75;1.10;;;22.70;59.20;;;;;;5071680;28;20048;-61
2022/06/13 10:14:05;;;;;;;5.32;1.20;;;22.70;59.10;;;;;;5072538;28;20052;-61
2022/06/13 10:16:54;;;;;;;5.45;1.20;;;22.70;59.00;;;;;;5072914;28;20045;-62
2022/06/13 10:19:54;;;;;;;5.20;1.50;;;22.70;58.90;;;;;;5073081;28;20048;-62
2022/06/13 10:22:37;;;;;;;4.40;1.23;;;22.70;58.80;;;;;;5070513;28;20126;-63
2022/06/13 10:25:28;;;;;;;5.60;1.00;;;22.70;58.60;;;;;;5104494;28;20441;-63
2022/06/13 10:28:18;;;;;;;5.03;1.05;;;22.70;58.70;;;;;;5071169;28;20514;-63
2022/06/13 10:30:57;;;;;;;6.10;1.40;;;22.70;58.70;;;;;;5070360;28;20480;-63
2022/06/13 10:33:44;;;;;;;5.05;1.00;;;22.70;58.70;;;;;;5068648;28;20052;-64
2022/06/13 10:36:33;;;;;;;4.53;1.15;;;22.70;58.70;;;;;;5070593;28;20050;-64
2022/06/13 10:39:06;;;;;;;2.28;0.90;;;22.70;58.80;;;;;;5054140;28;20053;-63
2022/06/13 10:41:35;;;;;;;4.72;1.20;;;22.70;58.80;;;;;;5051085;28;20045;-63
2022/06/13 10:44:01;;;;;;;4.85;1.17;;;22.70;58.50;;;;;;5051956;28;20550;-62
2022/06/13 10:46:26;;;;;;;3.63;1.10;;;22.80;58.30;;;;;;5051415;28;20049;-62
2022/06/13 10:49:11;;;;;;;4.15;1.15;;;22.80;58.20;;;;;;5051601;28;20567;-60
2022/06/13 10:51:36;;;;;;;3.58;0.90;;;22.80;58.10;;;;;;5051346;28;20048;-62
2022/06/13 10:54:12;;;;;;;4.35;1.00;;;22.80;58.10;;;;;;5051100;28;20045;-62
2022/06/13 10:56:51;;;;;;;4.65;1.00;;;22.80;57.90;;;;;;5050490;28;20383;-62
2022/06/13 10:59:25;;;;;;;5.05;1.10;;;22.80;57.90;;;;;;5051220;28;20041;-59
2022/06/13 11:01:54;;;;;;;3.28;1.08;;;22.80;57.80;;;;;;5051940;28;20045;-59
2022/06/13 11:04:19;;;;;;;7.22;1.08;;;22.80;57.80;;;;;;5050446;28;20102;-58
2022/06/13 11:06:50;;;;;;;5.10;0.93;;;22.80;57.70;;;;;;5052142;28;20044;-58
2022/06/13 11:09:35;;;;;;;2.40;0.63;;;22.80;57.50;;;;;;5052660;28;20073;-58
2022/06/13 11:12:03;;;;;;;3.05;0.73;;;22.80;57.20;;;;;;5051562;28;20040;-59
2022/06/13 11:14:32;;;;;;;;;;;22.70;56.30;;;;;;5050901;28;20107;-59
2022/06/13 11:22:40;;;;;;;3.60;0.77;;;22.60;55.80;;;;;;5054910;28;20049;-57
2022/06/13 11:25:21;;;;;;;3.47;0.80;;;22.60;55.00;;;;;;5064261;28;20467;-58
2022/06/13 11:28:01;;;;;;;3.95;0.70;;;22.60;54.50;;;;;;5050717;28;20059;-58
2022/06/13 11:30:27;;;;;;;5.53;1.00;;;22.60;54.60;;;;;;5052211;28;20084;-58
2022/06/13 11:33:00;;;;;;;1.98;0.50;;;22.50;54.50;;;;;;5051022;28;20083;-58
2022/06/13 11:35:49;;;;;;;4.45;0.65;;;22.50;54.40;;;;;;5051848;28;20040;-58
2022/06/13 11:38:22;;;;;;;2.95;0.80;;;22.50;54.40;;;;;;5070863;28;20091;-58
2022/06/13 11:41:20;;;;;;;4.18;0.70;;;22.50;54.60;;;;;;5071554;28;20451;-58
2022/06/13 11:44:00;;;;;;;3.80;0.75;;;22.50;54.60;;;;;;5065285;28;20058;-58
2022/06/13 11:46:30;;;;;;;4.70;0.77;;;22.50;54.70;;;;;;5070693;28;20056;-58
2022/06/13 11:48:59;;;;;;;3.60;0.70;;;22.60;54.80;;;;;;5070552;28;20385;-58
2022/06/13 11:51:28;;;;;;;4.85;0.93;;;22.60;54.80;;;;;;5072402;28;20072;-58
2022/06/13 11:53:56;;;;;;;3.53;0.70;;;22.60;54.90;;;;;;5072651;28;20123;-58
2022/06/13 11:56:32;;;;;;;2.42;0.85;;;22.60;54.80;;;;;;5075997;28;20049;-59
2022/06/13 11:59:00;;;;;;;5.90;0.80;;;22.60;54.90;;;;;;5074787;28;20045;-58
2022/06/13 12:01:30;;;;;;;3.45;0.70;;;22.60;55.00;;;;;;5075192;28;20048;-58
2022/06/13 12:04:07;;;;;;;3.10;1.20;;;22.60;55.00;;;;;;5075766;28;20076;-58
2022/06/13 12:06:40;;;;;;;2.47;0.60;;;22.60;55.00;;;;;;5073700;28;20045;-58
2022/06/13 12:09:16;;;;;;;5.97;1.05;;;22.60;55.00;;;;;;5075802;28;20143;-59
2022/06/13 12:11:54;;;;;;;4.88;0.82;;;22.60;55.00;;;;;;5075239;28;20103;-59
2022/06/13 12:14:19;;;;;;;5.72;1.17;;;22.60;55.10;;;;;;5074923;28;20048;-59
2022/06/13 12:16:50;;;;;;;6.35;1.05;;;22.70;55.30;;;;;;5075304;28;20044;-59
2022/06/13 12:19:27;;;;;;;4.07;0.68;;;22.70;55.30;;;;;;5073817;28;20539;-60
2022/06/13 12:22:16;;;;;;;5.40;1.05;;;22.70;55.30;;;;;;5073554;28;20052;-59
2022/06/13 12:25:03;;;;;;;2.22;0.70;;;22.70;55.20;;;;;;5063239;28;20064;-60
2022/06/13 12:27:37;;;;;;;3.83;0.93;;;22.70;55.10;;;;;;5074580;28;20063;-59
2022/06/13 12:30:12;;;;;;;3.28;0.88;;;22.70;55.10;;;;;;5071071;28;20170;-58
2022/06/13 12:32:46;;;;;;;2.30;0.60;;;22.70;55.20;;;;;;5074182;28;20059;-58
2022/06/13 12:35:33;;;;;;;1.65;0.50;;;22.80;55.20;;;;;;5074360;28;20040;-58
2022/06/13 12:38:17;;;;;;;3.42;0.73;;;22.80;55.20;;;;;;5074035;28;20044;-58
2022/06/13 12:40:54;;;;;;;3.25;0.70;;;22.70;55.00;;;;;;5073501;28;20408;-58
2022/06/13 12:43:31;;;;;;;2.13;0.60;;;22.80;55.10;;;;;;5073211;28;20044;-58
2022/06/13 12:46:16;;;;;;;2.33;0.60;;;22.80;55.10;;;;;;5074492;28;20052;-58
2022/06/13 12:48:54;;;;;;;2.15;0.55;;;22.80;55.10;;;;;;5073552;28;20080;-58
2022/06/13 12:51:29;;;;;;;4.30;0.80;;;22.80;55.30;;;;;;5073754;28;20045;-58
2022/06/13 12:54:03;;;;;;;3.28;0.80;;;22.90;55.30;;;;;;5074598;28;20037;-58
2022/06/13 12:56:43;;;;;;;4.95;1.38;;;22.80;55.30;;;;;;5074319;28;20094;-57
2022/06/13 12:59:29;;;;;;;3.08;0.70;;;22.80;55.30;;;;;;5073537;28;20040;-58
2022/06/13 13:02:18;;;;;;;2.53;0.52;;;22.90;55.50;;;;;;5073783;28;20052;-58
2022/06/13 13:05:19;;;;;;;3.38;0.57;;;22.80;55.50;;;;;;5073536;28;20045;-58
2022/06/13 13:07:53;;;;;;;2.33;0.68;;;22.80;55.50;;;;;;5072867;28;20087;-58
2022/06/13 13:10:34;;;;;;;3.90;0.85;;;22.80;55.60;;;;;;5073801;28;20047;-58
2022/06/13 13:13:18;;;;;;;4.78;0.57;;;22.80;55.70;;;;;;5072771;28;20049;-58
2022/06/13 13:16:08;;;;;;;4.13;0.70;;;22.80;55.70;;;;;;5073714;28;20098;-58
2022/06/13 13:18:43;;;;;;;4.85;0.80;;;22.80;55.80;;;;;;5072580;28;20048;-59
2022/06/13 13:21:42;;;;;;;3.28;0.70;;;22.80;55.90;;;;;;5071573;28;20051;-60
2022/06/13 13:24:20;;;;;;;2.42;0.70;;;22.80;55.90;;;;;;5063725;28;20052;-59
2022/06/13 13:26:58;;;;;;;2.83;0.60;;;22.80;55.70;;;;;;5073931;28;20040;-59
2022/06/13 13:29:50;;;;;;;3.05;0.60;;;22.70;55.70;;;;;;5072922;28;20056;-59
2022/06/13 13:32:54;;;;;;;2.35;0.98;;;22.80;55.70;;;;;;5073072;28;20487;-58
2022/06/13 13:35:38;;;;;;;3.25;0.68;;;22.70;55.60;;;;;;5059500;28;20053;-58
2022/06/13 13:38:14;;;;;;;3.90;0.60;;;22.70;55.70;;;;;;5072355;28;20491;-59